sensor_id;sensor_type;location;lat;lon;timestamp;P1;durP1;ratioP1;P2;durP2;ratioP2
25351;SDS011;13304;48.464;8.712;2023-03-16T00:02:07;8.57;;;3.70;;
25351;SDS011;13304;48.464;8.712;2023-03-16T00:04:34;8.23;;;3.90;;
25351;SDS011;13304;48.464;8.712;2023-03-16T00:07:05;6.63;;;3.37;;
25351;SDS011;13304;48.464;8.712;2023-03-16T00:09:33;9.57;;;3.23;;
25351;SDS011;13304;48.464;8.712;2023-03-16T00:12:00;6.47;;;3.13;;
25351;SDS011;13304;48.464;8.712;2023-03-16T00:14:28;8.83;;;3.53;;
25351;SDS011;13304;48.464;8.712;2023-03-16T00:16:54;8.30;;;3.50;;
25351;SDS011;13304;48.464;8.712;2023-03-16T00:19:19;8.93;;;4.00;;
25351;SDS011;13304;48.464;8.712;2023-03-16T00:21:49;7.55;;;4.10;;
25351;SDS011;13304;48.464;8.712;2023-03-16T00:24:15;10.17;;;4.23;;
25351;SDS011;13304;48.464;8.712;2023-03-16T00:29:11;8.50;;;4.03;;
25351;SDS011;13304;48.464;8.712;2023-03-16T00:31:38;9.03;;;4.23;;
25351;SDS011;13304;48.464;8.712;2023-03-16T00:34:07;9.97;;;3.80;;
25351;SDS011;13304;48.464;8.712;2023-03-16T00:36:36;8.15;;;4.03;;
25351;SDS011;13304;48.464;8.712;2023-03-16T00:39:03;7.47;;;4.00;;
25351;SDS011;13304;48.464;8.712;2023-03-16T00:41:30;9.30;;;4.23;;
25351;SDS011;13304;48.464;8.712;2023-03-16T00:43:56;14.23;;;4.30;;
25351;SDS011;13304;48.464;8.712;2023-03-16T00:46:22;9.97;;;4.23;;
25351;SDS011;13304;48.464;8.712;2023-03-16T00:48:51;12.93;;;4.50;;
25351;SDS011;13304;48.464;8.712;2023-03-16T00:51:17;10.20;;;4.67;;
25351;SDS011;13304;48.464;8.712;2023-03-16T00:53:44;13.63;;;6.10;;
25351;SDS011;13304;48.464;8.712;2023-03-16T00:56:11;13.37;;;7.50;;
25351;SDS011;13304;48.464;8.712;2023-03-16T00:58:38;13.93;;;7.70;;
25351;SDS011;13304;48.464;8.712;2023-03-16T01:03:33;19.73;;;10.10;;
25351;SDS011;13304;48.464;8.712;2023-03-16T01:06:07;16.00;;;9.40;;
25351;SDS011;13304;48.464;8.712;2023-03-16T01:08:36;18.60;;;9.37;;
25351;SDS011;13304;48.464;8.712;2023-03-16T01:11:07;14.97;;;8.47;;
25351;SDS011;13304;48.464;8.712;2023-03-16T01:13:36;16.10;;;8.10;;
25351;SDS011;13304;48.464;8.712;2023-03-16T01:16:02;14.63;;;8.00;;
25351;SDS011;13304;48.464;8.712;2023-03-16T01:18:29;16.40;;;8.57;;
25351;SDS011;13304;48.464;8.712;2023-03-16T01:20:58;18.50;;;8.48;;
25351;SDS011;13304;48.464;8.712;2023-03-16T01:23:26;21.03;;;8.37;;
25351;SDS011;13304;48.464;8.712;2023-03-16T01:25:54;14.30;;;7.00;;
25351;SDS011;13304;48.464;8.712;2023-03-16T01:28:24;14.27;;;7.43;;
25351;SDS011;13304;48.464;8.712;2023-03-16T01:30:52;12.77;;;7.60;;
25351;SDS011;13304;48.464;8.712;2023-03-16T01:33:25;14.57;;;7.07;;
25351;SDS011;13304;48.464;8.712;2023-03-16T01:36:02;13.63;;;7.07;;
25351;SDS011;13304;48.464;8.712;2023-03-16T01:38:30;14.43;;;7.20;;
25351;SDS011;13304;48.464;8.712;2023-03-16T01:40:56;15.80;;;7.03;;
25351;SDS011;13304;48.464;8.712;2023-03-16T01:43:23;14.67;;;6.93;;
25351;SDS011;13304;48.464;8.712;2023-03-16T01:48:30;11.63;;;6.10;;
25351;SDS011;13304;48.464;8.712;2023-03-16T01:51:09;17.10;;;7.10;;
25351;SDS011;13304;48.464;8.712;2023-03-16T01:53:36;19.97;;;7.03;;
25351;SDS011;13304;48.464;8.712;2023-03-16T01:56:04;11.83;;;6.07;;
25351;SDS011;13304;48.464;8.712;2023-03-16T01:58:34;18.17;;;6.60;;
25351;SDS011;13304;48.464;8.712;2023-03-16T02:01:02;11.03;;;5.90;;
25351;SDS011;13304;48.464;8.712;2023-03-16T02:03:28;10.73;;;6.17;;
25351;SDS011;13304;48.464;8.712;2023-03-16T02:06:00;10.50;;;5.83;;
25351;SDS011;13304;48.464;8.712;2023-03-16T02:08:32;10.73;;;5.73;;
25351;SDS011;13304;48.464;8.712;2023-03-16T02:10:59;11.33;;;6.47;;
25351;SDS011;13304;48.464;8.712;2023-03-16T02:13:25;13.00;;;6.77;;
25351;SDS011;13304;48.464;8.712;2023-03-16T02:15:53;13.77;;;6.23;;
25351;SDS011;13304;48.464;8.712;2023-03-16T02:18:20;13.67;;;6.07;;
25351;SDS011;13304;48.464;8.712;2023-03-16T02:23:33;11.70;;;6.10;;
25351;SDS011;13304;48.464;8.712;2023-03-16T02:26:18;19.37;;;7.20;;
25351;SDS011;13304;48.464;8.712;2023-03-16T02:32:29;69.60;;;9.20;;
25351;SDS011;13304;48.464;8.712;2023-03-16T02:34:56;124.77;;;10.57;;
25351;SDS011;13304;48.464;8.712;2023-03-16T02:37:24;103.83;;;11.13;;
25351;SDS011;13304;48.464;8.712;2023-03-16T02:39:51;104.53;;;10.37;;
25351;SDS011;13304;48.464;8.712;2023-03-16T02:42:18;121.50;;;10.73;;
25351;SDS011;13304;48.464;8.712;2023-03-16T02:44:47;120.03;;;9.63;;
25351;SDS011;13304;48.464;8.712;2023-03-16T02:47:23;90.50;;;10.67;;
25351;SDS011;13304;48.464;8.712;2023-03-16T02:50:08;132.10;;;11.57;;
25351;SDS011;13304;48.464;8.712;2023-03-16T02:52:35;176.60;;;13.87;;
25351;SDS011;13304;48.464;8.712;2023-03-16T02:55:02;275.10;;;12.47;;
25351;SDS011;13304;48.464;8.712;2023-03-16T02:57:29;203.87;;;12.10;;
25351;SDS011;13304;48.464;8.712;2023-03-16T02:59:56;252.67;;;13.33;;
25351;SDS011;13304;48.464;8.712;2023-03-16T03:02:22;361.63;;;15.60;;
25351;SDS011;13304;48.464;8.712;2023-03-16T03:04:48;332.77;;;13.97;;
25351;SDS011;13304;48.464;8.712;2023-03-16T03:07:18;277.90;;;13.27;;
25351;SDS011;13304;48.464;8.712;2023-03-16T03:09:45;197.30;;;12.03;;
25351;SDS011;13304;48.464;8.712;2023-03-16T03:12:11;180.47;;;13.00;;
25351;SDS011;13304;48.464;8.712;2023-03-16T03:14:37;321.70;;;15.17;;
25351;SDS011;13304;48.464;8.712;2023-03-16T03:17:07;279.67;;;14.80;;
25351;SDS011;13304;48.464;8.712;2023-03-16T03:19:34;158.37;;;12.13;;
25351;SDS011;13304;48.464;8.712;2023-03-16T03:22:01;172.00;;;12.83;;
25351;SDS011;13304;48.464;8.712;2023-03-16T03:24:30;163.43;;;11.73;;
25351;SDS011;13304;48.464;8.712;2023-03-16T03:26:57;254.13;;;12.67;;
25351;SDS011;13304;48.464;8.712;2023-03-16T03:29:31;261.43;;;11.93;;
25351;SDS011;13304;48.464;8.712;2023-03-16T03:32:02;271.00;;;12.83;;
25351;SDS011;13304;48.464;8.712;2023-03-16T03:34:29;295.40;;;12.27;;
25351;SDS011;13304;48.464;8.712;2023-03-16T03:36:55;173.67;;;11.10;;
25351;SDS011;13304;48.464;8.712;2023-03-16T03:39:21;225.87;;;10.90;;
25351;SDS011;13304;48.464;8.712;2023-03-16T03:41:47;125.00;;;10.77;;
25351;SDS011;13304;48.464;8.712;2023-03-16T03:44:13;248.33;;;12.93;;
25351;SDS011;13304;48.464;8.712;2023-03-16T03:46:39;506.13;;;14.93;;
25351;SDS011;13304;48.464;8.712;2023-03-16T03:49:07;306.83;;;13.83;;
25351;SDS011;13304;48.464;8.712;2023-03-16T03:51:33;330.57;;;13.73;;
25351;SDS011;13304;48.464;8.712;2023-03-16T03:53:59;188.40;;;12.23;;
25351;SDS011;13304;48.464;8.712;2023-03-16T03:56:25;208.70;;;12.73;;
25351;SDS011;13304;48.464;8.712;2023-03-16T03:58:50;264.30;;;11.63;;
25351;SDS011;13304;48.464;8.712;2023-03-16T04:01:16;227.00;;;10.87;;
25351;SDS011;13304;48.464;8.712;2023-03-16T04:03:42;195.40;;;11.27;;
25351;SDS011;13304;48.464;8.712;2023-03-16T04:06:08;204.80;;;10.63;;
25351;SDS011;13304;48.464;8.712;2023-03-16T04:08:35;225.87;;;12.47;;
25351;SDS011;13304;48.464;8.712;2023-03-16T04:11:00;196.20;;;10.83;;
25351;SDS011;13304;48.464;8.712;2023-03-16T04:13:26;201.63;;;10.87;;
25351;SDS011;13304;48.464;8.712;2023-03-16T04:15:59;293.13;;;11.17;;
25351;SDS011;13304;48.464;8.712;2023-03-16T04:18:28;217.27;;;11.67;;
25351;SDS011;13304;48.464;8.712;2023-03-16T04:20:54;121.17;;;10.40;;
25351;SDS011;13304;48.464;8.712;2023-03-16T04:23:20;165.57;;;10.03;;
25351;SDS011;13304;48.464;8.712;2023-03-16T04:25:48;171.00;;;9.10;;
25351;SDS011;13304;48.464;8.712;2023-03-16T04:28:14;159.20;;;8.30;;
25351;SDS011;13304;48.464;8.712;2023-03-16T04:30:41;97.87;;;7.77;;
25351;SDS011;13304;48.464;8.712;2023-03-16T04:33:07;115.40;;;8.67;;
25351;SDS011;13304;48.464;8.712;2023-03-16T04:35:33;95.37;;;7.80;;
25351;SDS011;13304;48.464;8.712;2023-03-16T04:37:59;82.60;;;9.10;;
25351;SDS011;13304;48.464;8.712;2023-03-16T04:40:26;88.97;;;8.33;;
25351;SDS011;13304;48.464;8.712;2023-03-16T04:42:52;64.50;;;7.83;;
25351;SDS011;13304;48.464;8.712;2023-03-16T04:45:21;30.65;;;7.43;;
25351;SDS011;13304;48.464;8.712;2023-03-16T04:47:47;43.23;;;7.63;;
25351;SDS011;13304;48.464;8.712;2023-03-16T04:50:14;55.30;;;8.13;;
25351;SDS011;13304;48.464;8.712;2023-03-16T04:52:39;82.63;;;8.37;;
25351;SDS011;13304;48.464;8.712;2023-03-16T04:55:05;110.23;;;8.60;;
25351;SDS011;13304;48.464;8.712;2023-03-16T04:57:31;97.20;;;7.83;;
25351;SDS011;13304;48.464;8.712;2023-03-16T04:59:57;78.60;;;7.17;;
25351;SDS011;13304;48.464;8.712;2023-03-16T05:02:23;122.43;;;8.90;;
25351;SDS011;13304;48.464;8.712;2023-03-16T05:04:48;137.93;;;8.07;;
25351;SDS011;13304;48.464;8.712;2023-03-16T05:07:14;156.57;;;7.40;;
25351;SDS011;13304;48.464;8.712;2023-03-16T05:09:41;58.93;;;7.27;;
25351;SDS011;13304;48.464;8.712;2023-03-16T05:12:07;264.13;;;10.13;;
25351;SDS011;13304;48.464;8.712;2023-03-16T05:14:33;252.33;;;10.23;;
25351;SDS011;13304;48.464;8.712;2023-03-16T05:17:00;341.67;;;11.67;;
25351;SDS011;13304;48.464;8.712;2023-03-16T05:19:28;324.17;;;11.03;;
25351;SDS011;13304;48.464;8.712;2023-03-16T05:21:54;155.10;;;8.10;;
25351;SDS011;13304;48.464;8.712;2023-03-16T05:24:21;281.23;;;12.37;;
25351;SDS011;13304;48.464;8.712;2023-03-16T05:26:47;499.30;;;14.57;;
25351;SDS011;13304;48.464;8.712;2023-03-16T05:29:13;505.90;;;15.30;;
25351;SDS011;13304;48.464;8.712;2023-03-16T05:31:39;786.33;;;22.17;;
25351;SDS011;13304;48.464;8.712;2023-03-16T05:34:05;694.27;;;19.53;;
25351;SDS011;13304;48.464;8.712;2023-03-16T05:36:30;451.23;;;16.17;;
25351;SDS011;13304;48.464;8.712;2023-03-16T05:38:56;362.57;;;13.20;;
25351;SDS011;13304;48.464;8.712;2023-03-16T05:41:23;602.60;;;19.03;;
25351;SDS011;13304;48.464;8.712;2023-03-16T05:43:49;815.23;;;21.60;;
25351;SDS011;13304;48.464;8.712;2023-03-16T05:46:14;611.30;;;18.60;;
25351;SDS011;13304;48.464;8.712;2023-03-16T05:48:40;247.93;;;10.87;;
25351;SDS011;13304;48.464;8.712;2023-03-16T05:51:06;408.33;;;13.40;;
25351;SDS011;13304;48.464;8.712;2023-03-16T05:53:32;223.13;;;11.60;;
25351;SDS011;13304;48.464;8.712;2023-03-16T05:55:59;433.07;;;16.40;;
25351;SDS011;13304;48.464;8.712;2023-03-16T05:58:25;248.47;;;11.80;;
25351;SDS011;13304;48.464;8.712;2023-03-16T06:00:51;176.03;;;10.53;;
25351;SDS011;13304;48.464;8.712;2023-03-16T06:03:19;405.13;;;14.17;;
25351;SDS011;13304;48.464;8.712;2023-03-16T06:05:47;261.77;;;12.67;;
25351;SDS011;13304;48.464;8.712;2023-03-16T06:08:13;168.87;;;11.00;;
25351;SDS011;13304;48.464;8.712;2023-03-16T06:10:39;210.27;;;10.57;;
25351;SDS011;13304;48.464;8.712;2023-03-16T06:13:05;139.50;;;8.63;;
25351;SDS011;13304;48.464;8.712;2023-03-16T06:15:31;195.27;;;11.33;;
25351;SDS011;13304;48.464;8.712;2023-03-16T06:17:57;107.37;;;8.93;;
25351;SDS011;13304;48.464;8.712;2023-03-16T06:20:23;134.27;;;8.57;;
25351;SDS011;13304;48.464;8.712;2023-03-16T06:22:49;103.43;;;8.13;;
25351;SDS011;13304;48.464;8.712;2023-03-16T06:25:15;167.77;;;8.57;;
25351;SDS011;13304;48.464;8.712;2023-03-16T06:27:41;208.37;;;10.33;;
25351;SDS011;13304;48.464;8.712;2023-03-16T06:30:08;238.00;;;9.93;;
25351;SDS011;13304;48.464;8.712;2023-03-16T06:32:36;151.80;;;8.80;;
25351;SDS011;13304;48.464;8.712;2023-03-16T06:35:02;122.97;;;8.30;;
25351;SDS011;13304;48.464;8.712;2023-03-16T06:37:29;198.30;;;10.63;;
25351;SDS011;13304;48.464;8.712;2023-03-16T06:39:55;234.73;;;9.33;;
25351;SDS011;13304;48.464;8.712;2023-03-16T06:42:21;124.27;;;8.87;;
25351;SDS011;13304;48.464;8.712;2023-03-16T06:44:48;194.10;;;8.80;;
25351;SDS011;13304;48.464;8.712;2023-03-16T06:47:13;294.03;;;10.87;;
25351;SDS011;13304;48.464;8.712;2023-03-16T06:49:39;281.47;;;10.37;;
25351;SDS011;13304;48.464;8.712;2023-03-16T06:52:05;224.73;;;9.60;;
25351;SDS011;13304;48.464;8.712;2023-03-16T06:54:31;351.00;;;13.17;;
25351;SDS011;13304;48.464;8.712;2023-03-16T06:56:59;134.73;;;10.37;;
25351;SDS011;13304;48.464;8.712;2023-03-16T06:59:25;104.47;;;7.87;;
25351;SDS011;13304;48.464;8.712;2023-03-16T07:01:51;58.23;;;7.40;;
25351;SDS011;13304;48.464;8.712;2023-03-16T07:04:17;91.43;;;7.20;;
25351;SDS011;13304;48.464;8.712;2023-03-16T07:06:43;76.53;;;7.60;;
25351;SDS011;13304;48.464;8.712;2023-03-16T07:09:09;14.20;;;6.57;;
25351;SDS011;13304;48.464;8.712;2023-03-16T07:11:36;10.60;;;6.77;;
25351;SDS011;13304;48.464;8.712;2023-03-16T07:14:03;19.57;;;7.13;;
25351;SDS011;13304;48.464;8.712;2023-03-16T07:16:28;11.63;;;8.47;;
25351;SDS011;13304;48.464;8.712;2023-03-16T07:18:54;28.53;;;7.67;;
25351;SDS011;13304;48.464;8.712;2023-03-16T07:21:20;17.87;;;7.53;;
25351;SDS011;13304;48.464;8.712;2023-03-16T07:23:46;12.17;;;7.50;;
25351;SDS011;13304;48.464;8.712;2023-03-16T07:26:12;15.50;;;7.67;;
25351;SDS011;13304;48.464;8.712;2023-03-16T07:28:38;13.47;;;7.73;;
25351;SDS011;13304;48.464;8.712;2023-03-16T07:31:04;16.37;;;8.77;;
25351;SDS011;13304;48.464;8.712;2023-03-16T07:33:31;12.03;;;7.87;;
25351;SDS011;13304;48.464;8.712;2023-03-16T07:35:57;13.37;;;7.87;;
25351;SDS011;13304;48.464;8.712;2023-03-16T07:38:24;12.60;;;7.67;;
25351;SDS011;13304;48.464;8.712;2023-03-16T07:40:56;13.50;;;8.13;;
25351;SDS011;13304;48.464;8.712;2023-03-16T07:43:27;10.83;;;7.20;;
25351;SDS011;13304;48.464;8.712;2023-03-16T07:45:58;13.33;;;7.57;;
25351;SDS011;13304;48.464;8.712;2023-03-16T07:48:28;13.77;;;8.37;;
25351;SDS011;13304;48.464;8.712;2023-03-16T07:50:56;12.65;;;7.97;;
25351;SDS011;13304;48.464;8.712;2023-03-16T07:53:23;12.97;;;7.87;;
25351;SDS011;13304;48.464;8.712;2023-03-16T07:55:49;14.33;;;7.83;;
25351;SDS011;13304;48.464;8.712;2023-03-16T07:58:17;15.60;;;8.60;;
25351;SDS011;13304;48.464;8.712;2023-03-16T08:00:43;13.20;;;7.93;;
25351;SDS011;13304;48.464;8.712;2023-03-16T08:03:13;16.67;;;8.67;;
25351;SDS011;13304;48.464;8.712;2023-03-16T08:08:06;13.27;;;8.50;;
25351;SDS011;13304;48.464;8.712;2023-03-16T08:10:35;18.00;;;9.53;;
25351;SDS011;13304;48.464;8.712;2023-03-16T08:13:02;21.95;;;9.13;;
25351;SDS011;13304;48.464;8.712;2023-03-16T08:15:32;13.50;;;8.63;;
25351;SDS011;13304;48.464;8.712;2023-03-16T08:18:01;15.43;;;7.80;;
25351;SDS011;13304;48.464;8.712;2023-03-16T08:20:33;12.70;;;8.02;;
25351;SDS011;13304;48.464;8.712;2023-03-16T08:23:03;12.13;;;7.15;;
25351;SDS011;13304;48.464;8.712;2023-03-16T08:25:58;10.68;;;6.50;;
25351;SDS011;13304;48.464;8.712;2023-03-16T08:28:32;12.40;;;6.00;;
25351;SDS011;13304;48.464;8.712;2023-03-16T08:31:05;10.68;;;6.18;;
25351;SDS011;13304;48.464;8.712;2023-03-16T08:33:36;14.30;;;6.43;;
25351;SDS011;13304;48.464;8.712;2023-03-16T08:36:04;14.80;;;7.32;;
25351;SDS011;13304;48.464;8.712;2023-03-16T08:38:39;12.77;;;6.53;;
25351;SDS011;13304;48.464;8.712;2023-03-16T08:41:10;9.25;;;6.00;;
25351;SDS011;13304;48.464;8.712;2023-03-16T08:43:43;11.75;;;5.75;;
25351;SDS011;13304;48.464;8.712;2023-03-16T08:46:12;9.93;;;5.68;;
25351;SDS011;13304;48.464;8.712;2023-03-16T08:48:40;11.70;;;5.88;;
25351;SDS011;13304;48.464;8.712;2023-03-16T08:51:07;13.73;;;6.53;;
25351;SDS011;13304;48.464;8.712;2023-03-16T08:53:35;10.23;;;6.30;;
25351;SDS011;13304;48.464;8.712;2023-03-16T08:56:23;11.63;;;6.05;;
25351;SDS011;13304;48.464;8.712;2023-03-16T08:58:50;10.80;;;5.38;;
25351;SDS011;13304;48.464;8.712;2023-03-16T09:01:19;12.27;;;5.47;;
25351;SDS011;13304;48.464;8.712;2023-03-16T09:03:52;12.45;;;6.05;;
25351;SDS011;13304;48.464;8.712;2023-03-16T09:06:19;10.40;;;5.22;;
25351;SDS011;13304;48.464;8.712;2023-03-16T09:08:54;12.80;;;6.85;;
25351;SDS011;13304;48.464;8.712;2023-03-16T09:11:25;10.38;;;5.97;;
25351;SDS011;13304;48.464;8.712;2023-03-16T09:13:55;10.20;;;5.63;;
25351;SDS011;13304;48.464;8.712;2023-03-16T09:16:26;8.63;;;5.50;;
25351;SDS011;13304;48.464;8.712;2023-03-16T09:18:57;8.85;;;5.85;;
25351;SDS011;13304;48.464;8.712;2023-03-16T09:21:23;9.52;;;5.68;;
25351;SDS011;13304;48.464;8.712;2023-03-16T09:23:50;13.13;;;5.47;;
25351;SDS011;13304;48.464;8.712;2023-03-16T09:26:16;11.45;;;5.20;;
25351;SDS011;13304;48.464;8.712;2023-03-16T09:29:02;12.13;;;5.35;;
25351;SDS011;13304;48.464;8.712;2023-03-16T09:31:31;9.25;;;4.88;;
25351;SDS011;13304;48.464;8.712;2023-03-16T09:34:03;7.53;;;4.97;;
25351;SDS011;13304;48.464;8.712;2023-03-16T09:36:30;10.43;;;5.35;;
25351;SDS011;13304;48.464;8.712;2023-03-16T09:38:59;10.75;;;4.78;;
25351;SDS011;13304;48.464;8.712;2023-03-16T09:41:34;7.88;;;4.88;;
25351;SDS011;13304;48.464;8.712;2023-03-16T09:47:08;10.68;;;4.57;;
25351;SDS011;13304;48.464;8.712;2023-03-16T09:49:38;13.57;;;5.50;;
25351;SDS011;13304;48.464;8.712;2023-03-16T09:57:59;7.72;;;4.43;;
25351;SDS011;13304;48.464;8.712;2023-03-16T10:00:43;7.35;;;4.82;;
25351;SDS011;13304;48.464;8.712;2023-03-16T10:03:28;7.80;;;4.20;;
25351;SDS011;13304;48.464;8.712;2023-03-16T10:05:58;10.40;;;4.40;;
25351;SDS011;13304;48.464;8.712;2023-03-16T10:08:38;10.70;;;4.55;;
25351;SDS011;13304;48.464;8.712;2023-03-16T10:14:01;5.22;;;3.38;;
25351;SDS011;13304;48.464;8.712;2023-03-16T10:22:38;8.10;;;4.35;;
25351;SDS011;13304;48.464;8.712;2023-03-16T10:25:29;7.57;;;3.60;;
25351;SDS011;13304;48.464;8.712;2023-03-16T10:28:06;6.10;;;3.25;;
25351;SDS011;13304;48.464;8.712;2023-03-16T10:30:39;6.05;;;3.33;;
25351;SDS011;13304;48.464;8.712;2023-03-16T10:33:48;5.75;;;3.60;;
25351;SDS011;13304;48.464;8.712;2023-03-16T10:36:04;5.75;;;3.35;;
25351;SDS011;13304;48.464;8.712;2023-03-16T10:38:41;5.95;;;3.53;;
25351;SDS011;13304;48.464;8.712;2023-03-16T10:46:43;5.30;;;3.20;;
25351;SDS011;13304;48.464;8.712;2023-03-16T10:49:19;5.57;;;2.60;;
25351;SDS011;13304;48.464;8.712;2023-03-16T10:51:46;5.47;;;3.35;;
25351;SDS011;13304;48.464;8.712;2023-03-16T10:54:15;6.40;;;3.35;;
25351;SDS011;13304;48.464;8.712;2023-03-16T10:57:21;10.85;;;3.60;;
25351;SDS011;13304;48.464;8.712;2023-03-16T11:02:40;4.18;;;2.58;;
25351;SDS011;13304;48.464;8.712;2023-03-16T11:05:18;5.95;;;2.78;;
25351;SDS011;13304;48.464;8.712;2023-03-16T11:08:05;2.80;;;1.70;;
25351;SDS011;13304;48.464;8.712;2023-03-16T11:10:43;4.78;;;2.35;;
25351;SDS011;13304;48.464;8.712;2023-03-16T11:13:15;2.33;;;1.75;;
25351;SDS011;13304;48.464;8.712;2023-03-16T11:18:34;9.00;;;1.80;;
25351;SDS011;13304;48.464;8.712;2023-03-16T11:24:03;5.63;;;2.08;;
25351;SDS011;13304;48.464;8.712;2023-03-16T11:26:37;3.10;;;2.00;;
25351;SDS011;13304;48.464;8.712;2023-03-16T11:32:04;3.85;;;1.90;;
25351;SDS011;13304;48.464;8.712;2023-03-16T11:34:39;7.55;;;2.10;;
25351;SDS011;13304;48.464;8.712;2023-03-16T11:37:18;5.60;;;2.10;;
25351;SDS011;13304;48.464;8.712;2023-03-16T11:42:50;4.20;;;1.85;;
25351;SDS011;13304;48.464;8.712;2023-03-16T11:51:41;3.65;;;1.80;;
25351;SDS011;13304;48.464;8.712;2023-03-16T11:54:15;2.95;;;1.58;;
25351;SDS011;13304;48.464;8.712;2023-03-16T12:05:33;3.15;;;1.52;;
25351;SDS011;13304;48.464;8.712;2023-03-16T12:08:36;2.85;;;1.77;;
25351;SDS011;13304;48.464;8.712;2023-03-16T12:11:26;4.45;;;1.92;;
25351;SDS011;13304;48.464;8.712;2023-03-16T12:19:59;3.20;;;1.75;;
25351;SDS011;13304;48.464;8.712;2023-03-16T12:25:47;4.93;;;2.40;;
25351;SDS011;13304;48.464;8.712;2023-03-16T12:28:53;3.70;;;2.22;;
25351;SDS011;13304;48.464;8.712;2023-03-16T12:37:00;4.20;;;2.03;;
25351;SDS011;13304;48.464;8.712;2023-03-16T12:39:45;4.25;;;1.95;;
25351;SDS011;13304;48.464;8.712;2023-03-16T12:45:33;3.00;;;1.70;;
25351;SDS011;13304;48.464;8.712;2023-03-16T12:48:27;4.55;;;2.25;;
25351;SDS011;13304;48.464;8.712;2023-03-16T12:50:59;3.08;;;1.70;;
25351;SDS011;13304;48.464;8.712;2023-03-16T12:53:45;4.82;;;2.08;;
25351;SDS011;13304;48.464;8.712;2023-03-16T12:56:33;6.30;;;1.92;;
25351;SDS011;13304;48.464;8.712;2023-03-16T12:59:14;3.05;;;1.75;;
25351;SDS011;13304;48.464;8.712;2023-03-16T13:01:56;3.10;;;1.52;;
25351;SDS011;13304;48.464;8.712;2023-03-16T13:04:31;2.13;;;1.08;;
25351;SDS011;13304;48.464;8.712;2023-03-16T13:07:08;2.17;;;1.17;;
25351;SDS011;13304;48.464;8.712;2023-03-16T13:09:48;2.63;;;1.00;;
25351;SDS011;13304;48.464;8.712;2023-03-16T13:12:23;3.30;;;1.70;;
25351;SDS011;13304;48.464;8.712;2023-03-16T13:14:55;4.60;;;1.45;;
25351;SDS011;13304;48.464;8.712;2023-03-16T13:17:26;2.75;;;1.40;;
25351;SDS011;13304;48.464;8.712;2023-03-16T13:20:06;5.07;;;1.80;;
25351;SDS011;13304;48.464;8.712;2023-03-16T13:22:50;6.80;;;1.80;;
25351;SDS011;13304;48.464;8.712;2023-03-16T13:28:44;2.58;;;1.42;;
25351;SDS011;13304;48.464;8.712;2023-03-16T13:31:27;3.38;;;1.40;;
25351;SDS011;13304;48.464;8.712;2023-03-16T13:34:06;3.53;;;1.40;;
25351;SDS011;13304;48.464;8.712;2023-03-16T13:36:40;5.43;;;1.67;;
25351;SDS011;13304;48.464;8.712;2023-03-16T13:41:54;4.53;;;1.63;;
25351;SDS011;13304;48.464;8.712;2023-03-16T13:44:24;4.38;;;1.20;;
25351;SDS011;13304;48.464;8.712;2023-03-16T13:46:51;3.00;;;1.25;;
25351;SDS011;13304;48.464;8.712;2023-03-16T13:49:20;3.50;;;1.60;;
25351;SDS011;13304;48.464;8.712;2023-03-16T13:51:53;1.95;;;1.25;;
25351;SDS011;13304;48.464;8.712;2023-03-16T13:54:43;3.53;;;1.27;;
25351;SDS011;13304;48.464;8.712;2023-03-16T13:57:35;2.55;;;1.08;;
25351;SDS011;13304;48.464;8.712;2023-03-16T14:00:06;1.17;;;0.85;;
25351;SDS011;13304;48.464;8.712;2023-03-16T14:02:45;2.58;;;1.02;;
25351;SDS011;13304;48.464;8.712;2023-03-16T14:05:37;3.38;;;0.70;;
25351;SDS011;13304;48.464;8.712;2023-03-16T14:08:13;13.13;;;0.90;;
25351;SDS011;13304;48.464;8.712;2023-03-16T14:10:44;3.33;;;1.10;;
25351;SDS011;13304;48.464;8.712;2023-03-16T14:18:57;4.75;;;1.00;;
25351;SDS011;13304;48.464;8.712;2023-03-16T14:21:32;1.60;;;0.70;;
25351;SDS011;13304;48.464;8.712;2023-03-16T14:24:06;1.15;;;0.73;;
25351;SDS011;13304;48.464;8.712;2023-03-16T14:26:45;3.72;;;0.75;;
25351;SDS011;13304;48.464;8.712;2023-03-16T14:31:57;2.83;;;1.10;;
25351;SDS011;13304;48.464;8.712;2023-03-16T14:34:34;1.48;;;0.77;;
25351;SDS011;13304;48.464;8.712;2023-03-16T14:39:43;2.80;;;1.30;;
25351;SDS011;13304;48.464;8.712;2023-03-16T14:44:53;1.98;;;0.90;;
25351;SDS011;13304;48.464;8.712;2023-03-16T14:47:24;2.20;;;0.80;;
25351;SDS011;13304;48.464;8.712;2023-03-16T14:49:58;2.15;;;0.90;;
25351;SDS011;13304;48.464;8.712;2023-03-16T14:52:30;2.22;;;1.13;;
25351;SDS011;13304;48.464;8.712;2023-03-16T14:55:00;1.73;;;0.90;;
25351;SDS011;13304;48.464;8.712;2023-03-16T14:57:36;1.75;;;0.90;;
25351;SDS011;13304;48.464;8.712;2023-03-16T15:00:04;1.83;;;1.17;;
25351;SDS011;13304;48.464;8.712;2023-03-16T15:02:37;1.75;;;1.08;;
25351;SDS011;13304;48.464;8.712;2023-03-16T15:05:05;2.00;;;0.98;;
25351;SDS011;13304;48.464;8.712;2023-03-16T15:07:37;1.90;;;0.98;;
25351;SDS011;13304;48.464;8.712;2023-03-16T15:12:43;2.17;;;0.80;;
25351;SDS011;13304;48.464;8.712;2023-03-16T15:15:29;2.55;;;1.00;;
25351;SDS011;13304;48.464;8.712;2023-03-16T15:17:55;1.38;;;0.82;;
25351;SDS011;13304;48.464;8.712;2023-03-16T15:20:23;1.15;;;0.90;;
25351;SDS011;13304;48.464;8.712;2023-03-16T15:22:58;1.65;;;0.93;;
25351;SDS011;13304;48.464;8.712;2023-03-16T15:28:20;2.92;;;0.88;;
25351;SDS011;13304;48.464;8.712;2023-03-16T15:30:52;1.50;;;1.00;;
25351;SDS011;13304;48.464;8.712;2023-03-16T15:33:20;1.27;;;0.82;;
25351;SDS011;13304;48.464;8.712;2023-03-16T15:35:49;1.58;;;0.80;;
25351;SDS011;13304;48.464;8.712;2023-03-16T15:38:30;3.20;;;1.00;;
25351;SDS011;13304;48.464;8.712;2023-03-16T15:41:00;1.38;;;0.80;;
25351;SDS011;13304;48.464;8.712;2023-03-16T15:43:45;2.72;;;0.98;;
25351;SDS011;13304;48.464;8.712;2023-03-16T15:46:17;3.20;;;0.95;;
25351;SDS011;13304;48.464;8.712;2023-03-16T15:48:43;1.92;;;0.93;;
25351;SDS011;13304;48.464;8.712;2023-03-16T15:51:20;2.10;;;1.00;;
25351;SDS011;13304;48.464;8.712;2023-03-16T15:53:52;1.55;;;1.00;;
25351;SDS011;13304;48.464;8.712;2023-03-16T15:56:25;2.65;;;1.35;;
25351;SDS011;13304;48.464;8.712;2023-03-16T15:59:03;2.25;;;0.90;;
25351;SDS011;13304;48.464;8.712;2023-03-16T16:01:50;2.17;;;0.95;;
25351;SDS011;13304;48.464;8.712;2023-03-16T16:04:19;3.33;;;1.20;;
25351;SDS011;13304;48.464;8.712;2023-03-16T16:06:49;2.55;;;1.00;;
25351;SDS011;13304;48.464;8.712;2023-03-16T16:09:19;2.10;;;1.05;;
25351;SDS011;13304;48.464;8.712;2023-03-16T16:11:46;4.82;;;1.08;;
25351;SDS011;13304;48.464;8.712;2023-03-16T16:16:46;3.72;;;0.93;;
25351;SDS011;13304;48.464;8.712;2023-03-16T16:19:16;8.82;;;1.58;;
25351;SDS011;13304;48.464;8.712;2023-03-16T16:21:42;7.95;;;1.20;;
25351;SDS011;13304;48.464;8.712;2023-03-16T16:24:15;10.98;;;1.45;;
25351;SDS011;13304;48.464;8.712;2023-03-16T16:26:47;2.85;;;1.17;;
25351;SDS011;13304;48.464;8.712;2023-03-16T16:29:18;3.95;;;1.25;;
25351;SDS011;13304;48.464;8.712;2023-03-16T16:31:48;2.47;;;0.90;;
25351;SDS011;13304;48.464;8.712;2023-03-16T16:34:21;3.20;;;1.00;;
25351;SDS011;13304;48.464;8.712;2023-03-16T16:36:48;2.83;;;1.10;;
25351;SDS011;13304;48.464;8.712;2023-03-16T16:39:18;2.60;;;1.00;;
25351;SDS011;13304;48.464;8.712;2023-03-16T16:41:44;1.88;;;0.90;;
25351;SDS011;13304;48.464;8.712;2023-03-16T16:44:16;1.50;;;1.00;;
25351;SDS011;13304;48.464;8.712;2023-03-16T16:47:00;1.15;;;0.70;;
25351;SDS011;13304;48.464;8.712;2023-03-16T16:49:29;2.65;;;1.08;;